Time,TemperatureF,DewpointF,PressureIn,WindDirection,WindDirectionDegrees,WindSpeedMPH,WindSpeedGustMPH,Humidity,HourlyPrecipIn,Conditions,Clouds,dailyrainin,SolarRadiationWatts/m^2,SoftwareType,DateUTC
2013-04-19 00:03:00,49.0,34.0,-100.00,NNE,12,11.0,21.0,55,0.00,,,0.30,0.000000,,2013-04-19 05:03:00,
2013-04-19 00:11:00,49.0,34.0,-100.00,NNE,12,11.0,21.0,55,0.00,,,0.30,0.000000,,2013-04-19 05:11:00,
2013-04-19 00:22:00,49.0,34.0,-100.00,NNE,12,11.0,21.0,55,0.00,,,0.30,0.000000,,2013-04-19 05:22:00,
2013-04-19 00:32:00,49.0,34.0,-100.00,NNE,12,11.0,21.0,55,0.00,,,0.30,0.000000,,2013-04-19 05:32:00,
2013-04-19 01:02:00,47.0,34.0,-100.00,NNE,24,8.0,21.0,60,0.00,,,0.30,0.000000,,2013-04-19 06:02:00,
2013-04-19 01:12:00,47.0,34.0,-100.00,NNE,24,8.0,21.0,60,0.00,,,0.30,0.000000,,2013-04-19 06:12:00,
2013-04-19 01:22:00,47.0,34.0,-100.00,NNE,24,8.0,21.0,60,0.00,,,0.30,0.000000,,2013-04-19 06:22:00,
2013-04-19 01:32:00,47.0,34.0,-100.00,NNE,24,8.0,21.0,60,0.00,,,0.30,0.000000,,2013-04-19 06:32:00,
2013-04-19 02:02:00,46.0,34.0,-100.00,North,11,12.0,16.0,62,0.00,,,0.30,0.000000,,2013-04-19 07:02:00,
2013-04-19 02:12:00,46.0,34.0,-100.00,North,11,12.0,16.0,62,0.00,,,0.30,0.000000,,2013-04-19 07:12:00,
2013-04-19 02:21:00,46.0,34.0,-100.00,North,11,12.0,16.0,62,0.00,,,0.30,0.000000,,2013-04-19 07:21:00,
2013-04-19 02:32:00,46.0,34.0,-100.00,North,11,12.0,16.0,62,0.00,,,0.30,0.000000,,2013-04-19 07:32:00,
2013-04-19 03:02:00,44.0,33.0,-100.00,North,5,9.0,15.0,66,0.00,,,0.30,0.000000,,2013-04-19 08:02:00,
2013-04-19 03:12:00,44.0,33.0,-100.00,North,5,9.0,15.0,66,0.00,,,0.30,0.000000,,2013-04-19 08:12:00,
2013-04-19 03:21:00,44.0,33.0,-100.00,North,5,9.0,15.0,66,0.00,,,0.30,0.000000,,2013-04-19 08:21:00,
2013-04-19 03:32:00,44.0,33.0,-100.00,North,5,9.0,15.0,66,0.00,,,0.30,0.000000,,2013-04-19 08:32:00,
2013-04-19 04:01:00,43.0,32.0,-100.00,North,6,9.0,13.0,66,0.00,,,0.30,0.000000,,2013-04-19 09:01:00,
2013-04-19 04:12:00,43.0,32.0,-100.00,North,6,9.0,13.0,66,0.00,,,0.30,0.000000,,2013-04-19 09:12:00,
2013-04-19 04:21:00,43.0,32.0,-100.00,North,6,9.0,13.0,66,0.00,,,0.30,0.000000,,2013-04-19 09:21:00,
2013-04-19 04:32:00,43.0,32.0,-100.00,North,6,9.0,13.0,66,0.00,,,0.30,0.000000,,2013-04-19 09:32:00,
2013-04-19 05:02:00,42.0,31.0,-100.00,North,351,11.0,14.0,66,0.00,,,0.30,0.000000,,2013-04-19 10:02:00,
2013-04-19 05:13:00,42.0,31.0,-100.00,North,351,11.0,14.0,66,0.00,,,0.30,0.000000,,2013-04-19 10:13:00,
2013-04-19 05:23:00,42.0,31.0,-100.00,North,351,11.0,14.0,66,0.00,,,0.30,0.000000,,2013-04-19 10:23:00,
2013-04-19 05:33:00,42.0,31.0,-100.00,North,351,11.0,14.0,66,0.00,,,0.30,0.000000,,2013-04-19 10:33:00,
2013-04-19 06:03:00,42.0,30.0,-100.00,North,1,11.0,17.0,62,0.00,,,0.30,0.000000,,2013-04-19 11:03:00,
2013-04-19 06:11:00,42.0,30.0,-100.00,North,1,11.0,17.0,62,0.00,,,0.30,0.000000,,2013-04-19 11:11:00,
2013-04-19 06:22:00,42.0,30.0,-100.00,North,1,11.0,17.0,62,0.00,,,0.30,0.000000,,2013-04-19 11:22:00,
2013-04-19 06:32:00,42.0,30.0,-100.00,North,1,11.0,17.0,62,0.00,,,0.30,0.000000,,2013-04-19 11:32:00,
2013-04-19 07:03:00,41.0,29.0,-100.00,NNW,344,11.0,16.0,62,0.00,,,0.30,0.000000,,2013-04-19 12:03:00,
2013-04-19 07:12:00,41.0,29.0,-100.00,NNW,344,11.0,16.0,62,0.00,,,0.30,0.000000,,2013-04-19 12:12:00,
2013-04-19 07:22:00,41.0,29.0,-100.00,NNW,344,11.0,16.0,62,0.00,,,0.30,0.000000,,2013-04-19 12:22:00,
2013-04-19 07:32:00,41.0,29.0,-100.00,NNW,344,11.0,16.0,62,0.00,,,0.30,0.000000,,2013-04-19 12:32:00,
2013-04-19 08:01:00,43.0,28.0,-100.00,NNW,335,8.0,13.0,56,0.00,,,0.20,19.000000,,2013-04-19 13:01:00,
2013-04-19 08:11:00,43.0,28.0,-100.00,NNW,335,8.0,13.0,56,0.00,,,0.20,19.000000,,2013-04-19 13:11:00,
2013-04-19 08:21:00,43.0,28.0,-100.00,NNW,335,8.0,13.0,56,0.00,,,0.20,19.000000,,2013-04-19 13:21:00,
2013-04-19 08:32:00,43.0,28.0,-100.00,NNW,335,8.0,13.0,56,0.00,,,0.20,19.000000,,2013-04-19 13:32:00,
2013-04-19 09:02:00,47.0,30.0,-100.00,NW,308,9.0,14.0,51,0.00,,,0.15,181.000000,,2013-04-19 14:02:00,
2013-04-19 09:11:00,47.0,30.0,-100.00,NW,308,9.0,14.0,51,0.00,,,0.15,181.000000,,2013-04-19 14:11:00,
2013-04-19 09:22:00,47.0,30.0,-100.00,NW,308,9.0,14.0,51,0.00,,,0.15,181.000000,,2013-04-19 14:22:00,
2013-04-19 09:32:00,47.0,30.0,-100.00,NW,308,9.0,14.0,51,0.00,,,0.15,181.000000,,2013-04-19 14:32:00,
2013-04-19 10:02:00,50.0,27.0,-100.00,NW,320,12.0,19.0,40,0.00,,,0.02,397.000000,,2013-04-19 15:02:00,
2013-04-19 10:12:00,50.0,27.0,-100.00,NW,320,12.0,19.0,40,0.00,,,0.02,397.000000,,2013-04-19 15:12:00,
2013-04-19 10:21:00,50.0,27.0,-100.00,NW,320,12.0,19.0,40,0.00,,,0.02,397.000000,,2013-04-19 15:21:00,
2013-04-19 10:33:00,50.0,27.0,-100.00,NW,320,12.0,19.0,40,0.00,,,0.02,397.000000,,2013-04-19 15:33:00,
2013-04-19 11:03:00,53.0,22.0,-100.00,NNW,330,14.0,22.0,30,0.00,,,0.00,602.000000,,2013-04-19 16:03:00,
2013-04-19 11:13:00,53.0,22.0,-100.00,NNW,330,14.0,22.0,30,0.00,,,0.00,602.000000,,2013-04-19 16:13:00,
2013-04-19 11:23:00,53.0,22.0,-100.00,NNW,330,14.0,22.0,30,0.00,,,0.00,602.000000,,2013-04-19 16:23:00,
2013-04-19 11:32:00,53.0,22.0,-100.00,NNW,330,14.0,22.0,30,0.00,,,0.00,602.000000,,2013-04-19 16:32:00,
2013-04-19 12:02:00,56.0,21.0,-100.00,NNW,330,15.0,22.0,25,0.00,,,0.00,768.000000,,2013-04-19 17:02:00,
2013-04-19 12:12:00,56.0,21.0,-100.00,NNW,330,15.0,22.0,25,0.00,,,0.00,768.000000,,2013-04-19 17:12:00,
2013-04-19 12:21:00,56.0,21.0,-100.00,NNW,330,15.0,22.0,25,0.00,,,0.00,768.000000,,2013-04-19 17:21:00,
2013-04-19 12:33:00,56.0,21.0,-100.00,NNW,330,15.0,22.0,25,0.00,,,0.00,768.000000,,2013-04-19 17:33:00,
2013-04-19 13:02:00,58.0,21.0,-100.00,NNW,336,14.0,22.0,24,0.00,,,0.00,883.000000,,2013-04-19 18:02:00,
2013-04-19 13:13:00,58.0,21.0,-100.00,NNW,336,14.0,22.0,24,0.00,,,0.00,883.000000,,2013-04-19 18:13:00,
2013-04-19 13:23:00,58.0,21.0,-100.00,NNW,336,14.0,22.0,24,0.00,,,0.00,883.000000,,2013-04-19 18:23:00,
2013-04-19 13:33:00,58.0,21.0,-100.00,NNW,336,14.0,22.0,24,0.00,,,0.00,883.000000,,2013-04-19 18:33:00,
2013-04-19 14:02:00,61.0,22.0,-100.00,NW,326,12.0,30.0,22,0.00,,,0.00,938.000000,,2013-04-19 19:02:00,
2013-04-19 14:11:00,61.0,22.0,-100.00,NW,326,12.0,30.0,22,0.00,,,0.00,938.000000,,2013-04-19 19:11:00,
2013-04-19 14:21:00,61.0,22.0,-100.00,NW,326,12.0,30.0,22,0.00,,,0.00,938.000000,,2013-04-19 19:21:00,
2013-04-19 14:32:00,61.0,22.0,-100.00,NW,326,12.0,30.0,22,0.00,,,0.00,938.000000,,2013-04-19 19:32:00,
2013-04-19 15:02:00,62.0,20.0,-100.00,NW,320,17.0,23.0,20,0.00,,,0.00,934.000000,,2013-04-19 20:02:00,
2013-04-19 15:11:00,62.0,20.0,-100.00,NW,320,17.0,23.0,20,0.00,,,0.00,934.000000,,2013-04-19 20:11:00,
2013-04-19 15:22:00,62.0,20.0,-100.00,NW,320,17.0,23.0,20,0.00,,,0.00,934.000000,,2013-04-19 20:22:00,
2013-04-19 15:32:00,62.0,20.0,-100.00,NW,320,17.0,23.0,20,0.00,,,0.00,934.000000,,2013-04-19 20:32:00,
2013-04-19 16:01:00,63.0,19.0,-100.00,North,351,12.0,25.0,18,0.00,,,0.00,870.000000,,2013-04-19 21:01:00,
2013-04-19 16:11:00,63.0,19.0,-100.00,North,351,12.0,25.0,18,0.00,,,0.00,870.000000,,2013-04-19 21:11:00,
2013-04-19 16:21:00,63.0,19.0,-100.00,North,351,12.0,25.0,18,0.00,,,0.00,870.000000,,2013-04-19 21:21:00,
2013-04-19 16:32:00,63.0,19.0,-100.00,North,351,12.0,25.0,18,0.00,,,0.00,870.000000,,2013-04-19 21:32:00,
2013-04-19 17:02:00,64.0,20.0,-100.00,NNW,342,12.0,23.0,18,0.00,,,0.00,742.000000,,2013-04-19 22:02:00,
2013-04-19 17:12:00,64.0,20.0,-100.00,NNW,342,12.0,23.0,18,0.00,,,0.00,742.000000,,2013-04-19 22:12:00,
2013-04-19 17:22:00,64.0,20.0,-100.00,NNW,342,12.0,23.0,18,0.00,,,0.00,742.000000,,2013-04-19 22:22:00,
2013-04-19 17:33:00,64.0,20.0,-100.00,NNW,342,12.0,23.0,18,0.00,,,0.00,742.000000,,2013-04-19 22:33:00,
2013-04-19 18:03:00,64.0,20.0,-100.00,NNW,328,10.0,20.0,18,0.00,,,0.00,567.000000,,2013-04-19 23:03:00,
2013-04-19 18:11:00,64.0,20.0,-100.00,NNW,328,10.0,20.0,18,0.00,,,0.00,567.000000,,2013-04-19 23:11:00,
2013-04-19 18:22:00,64.0,20.0,-100.00,NNW,328,10.0,20.0,18,0.00,,,0.00,567.000000,,2013-04-19 23:22:00,
2013-04-19 18:32:00,64.0,20.0,-100.00,NNW,328,10.0,20.0,18,0.00,,,0.00,567.000000,,2013-04-19 23:32:00,
2013-04-19 19:02:00,64.0,20.0,-100.00,NW,324,6.0,16.0,18,0.00,,,0.00,359.000000,,2013-04-20 00:02:00,
2013-04-19 19:12:00,64.0,20.0,-100.00,NW,324,6.0,16.0,18,0.00,,,0.00,359.000000,,2013-04-20 00:12:00,
2013-04-19 19:21:00,64.0,20.0,-100.00,NW,324,6.0,16.0,18,0.00,,,0.00,359.000000,,2013-04-20 00:21:00,
2013-04-19 19:32:00,64.0,20.0,-100.00,NW,324,6.0,16.0,18,0.00,,,0.00,359.000000,,2013-04-20 00:32:00,
2013-04-19 20:01:00,61.0,21.0,-100.00,NNE,23,5.0,14.0,21,0.00,,,0.00,150.000000,,2013-04-20 01:01:00,
2013-04-19 20:11:00,61.0,21.0,-100.00,NNE,23,5.0,14.0,21,0.00,,,0.00,150.000000,,2013-04-20 01:11:00,
2013-04-19 20:21:00,61.0,21.0,-100.00,NNE,23,5.0,14.0,21,0.00,,,0.00,150.000000,,2013-04-20 01:21:00,
2013-04-19 20:32:00,61.0,21.0,-100.00,NNE,23,5.0,14.0,21,0.00,,,0.00,150.000000,,2013-04-20 01:32:00,
2013-04-19 21:01:00,56.0,23.0,-100.00,NE,49,5.0,6.0,28,0.00,,,0.00,11.000000,,2013-04-20 02:01:00,
2013-04-19 21:11:00,56.0,23.0,-100.00,NE,49,5.0,6.0,28,0.00,,,0.00,11.000000,,2013-04-20 02:11:00,
2013-04-19 21:21:00,56.0,23.0,-100.00,NE,49,5.0,6.0,28,0.00,,,0.00,11.000000,,2013-04-20 02:21:00,
2013-04-19 21:32:00,56.0,23.0,-100.00,NE,49,5.0,6.0,28,0.00,,,0.00,11.000000,,2013-04-20 02:32:00,
2013-04-19 22:01:00,55.0,23.0,-100.00,NE,54,6.0,7.0,28,0.00,,,0.00,0.000000,,2013-04-20 03:01:00,
2013-04-19 22:11:00,55.0,23.0,-100.00,NE,54,6.0,7.0,28,0.00,,,0.00,0.000000,,2013-04-20 03:11:00,
2013-04-19 22:21:00,55.0,23.0,-100.00,NE,54,6.0,7.0,28,0.00,,,0.00,0.000000,,2013-04-20 03:21:00,
2013-04-19 22:33:00,55.0,23.0,-100.00,NE,54,6.0,7.0,28,0.00,,,0.00,0.000000,,2013-04-20 03:33:00,
2013-04-19 23:03:00,53.0,23.0,-100.00,East,83,5.0,9.0,31,0.00,,,0.00,0.000000,,2013-04-20 04:03:00,
2013-04-19 23:12:00,53.0,23.0,-100.00,East,83,5.0,9.0,31,0.00,,,0.00,0.000000,,2013-04-20 04:12:00,
2013-04-19 23:23:00,53.0,23.0,-100.00,East,83,5.0,9.0,31,0.00,,,0.00,0.000000,,2013-04-20 04:23:00,
2013-04-19 23:32:00,53.0,23.0,-100.00,East,83,5.0,9.0,31,0.00,,,0.00,0.000000,,2013-04-20 04:32:00,